Aviation Digital Data Service (ADDS)

Output produced by METARs form (1119 UTC 07 December 2022)
found at http://aviationweather.gov/metar/data/
 
METAR text: KCHD 070347Z 00000KT 10SM CLR 14/12 A3000 RMK LAST
Conditions at: KCHD (CHANDLER , AZ, US) observed 0347 UTC 07 December 2022
Temperature: 14.0°C (57°F)
Dewpoint: 12.0°C (54°F) [RH = 88%]
Pressure (altimeter): 30.00 inches Hg (1016.0 mb)
Winds: calm
Visibility: 10 or more miles (16+ km)
Ceiling: at least 12,000 feet AGL
Clouds: sky clear below 12,000 feet AGL
Weather: no significant weather observed at this time

METAR text: KCHD 070247Z 00000KT 10SM CLR 15/13 A2997
Conditions at: KCHD (CHANDLER , AZ, US) observed 0247 UTC 07 December 2022
Temperature: 15.0°C (59°F)
Dewpoint: 13.0°C (55°F) [RH = 88%]
Pressure (altimeter): 29.97 inches Hg (1015.0 mb)
Winds: calm
Visibility: 10 or more miles (16+ km)
Ceiling: at least 12,000 feet AGL
Clouds: sky clear below 12,000 feet AGL
Weather: no significant weather observed at this time

METAR text: KCHD 070147Z 00000KT 10SM CLR 16/13 A2997
Conditions at: KCHD (CHANDLER , AZ, US) observed 0147 UTC 07 December 2022
Temperature: 16.0°C (61°F)
Dewpoint: 13.0°C (55°F) [RH = 82%]
Pressure (altimeter): 29.97 inches Hg (1015.0 mb)
Winds: calm
Visibility: 10 or more miles (16+ km)
Ceiling: at least 12,000 feet AGL
Clouds: sky clear below 12,000 feet AGL
Weather: no significant weather observed at this time

METAR text: KCHD 070047Z 00000KT 10SM BKN200 18/12 A2995
Conditions at: KCHD (CHANDLER , AZ, US) observed 0047 UTC 07 December 2022
Temperature: 18.0°C (64°F)
Dewpoint: 12.0°C (54°F) [RH = 68%]
Pressure (altimeter): 29.95 inches Hg (1014.3 mb)
Winds: calm
Visibility: 10 or more miles (16+ km)
Ceiling: 20000 feet AGL
Clouds: broken clouds at 20000 feet AGL
Weather: no significant weather observed at this time

METAR text: KCHD 062347Z 27003KT 10SM FEW070 19/11 A2994
Conditions at: KCHD (CHANDLER , AZ, US) observed 2347 UTC 06 December 2022
Temperature: 19.0°C (66°F)
Dewpoint: 11.0°C (52°F) [RH = 60%]
Pressure (altimeter): 29.94 inches Hg (1014.0 mb)
Winds: from the W (270 degrees) at 3 MPH (3 knots; 1.5 m/s)
Visibility: 10 or more miles (16+ km)
Ceiling: at least 12,000 feet AGL
Clouds: few clouds at 7000 feet AGL
Weather: no significant weather observed at this time